Aeroporto :
LOGIN :

Iscrizione | Disclaimer

   EN    FR    IT 

 










Sommario :    VFR   VFR Marginale   IFR   IFR Intensivo   IFR Molto Intensivo
Visibilità : 
Base nubi : 
>= 8 km
>= 3000ft
5 / 8 km
1000 / 3000 ft
1500m / 5 km
500 / 1000 ft
800 / 1500m
200 / 500 ft
< 800m
< 200 ft
Simboli :   Temporali  Nebbia  Neve Forte  Precipitazioni Forti  Vento > 20 kt
SIGMETs :   Varie  Temporali  Ghiacco  Turbolenza  Onda orograficha  Ceneri Vulcaniche






- Altitudine del aeroporto : 1276 ft
- Codice IATA : STR


EDDS - Stuttgart

ULTIMO METAR :
  • 140520Z 07003KT CAVOK 09/09 Q1016 NOSIG

METARs OBSOLETI :
  • 140450Z 08002KT CAVOK 10/09 Q1016 NOSIG
  • 140420Z 24003KT 220V280 CAVOK 14/11 Q1016 NOSIG
  • 140350Z 22002KT CAVOK 13/11 Q1016
  • 140320Z 23004KT CAVOK 11/10 Q1016
  • 140250Z VRB02KT CAVOK 11/10 Q1016

TAF TAF EDDS
Valido dal 14 a 06 ore il 15 a 06 ore UTC


140500Z 1406/1506 VRB03KT CAVOK
BECMG 1409/1412 08005KT
BECMG 1416/1418 VRB02KT
PROB30
TEMPO 1501/1506 2500 BCFG



MetMap, La meteo Aeronautica in un colpo d'occhio ! - Copyright ORBIFLY Dicembre 2007 - Disclaimer

ORBIFLY MET'MAP TEAM :

Programmazione e sviluppo : Alexandra Zaïnal
Concezione e sviluppo : Baudouin d'Aumeries
Co-Programmazione e sviluppo : Marc-Olivier Méhu
Supporto tecnico e logistico : Manuel Goepfert
Aiuto per la traduzione : Arnaldo La Scala

Contatto : metmap@orbifly.com




FONTI E CREDITI :

   NOAA